Time;durP1;ratioP1;P1;durP2;ratioP2;P2;SDS_P1;SDS_P2;PMS_P1;PMS_P2;Temp;Humidity;BMP_temperature;BMP_pressure;BME280_temperature;BME280_humidity;BME280_pressure;Samples;Min_cycle;Max_cycle;Signal;HPM_P1;HPM_P2
2022/07/30 00:01:50;;;;;;;3.45;3.17;;;;;;;25.71;47.23;94546.34;5089547;28;20525;-82
2022/07/30 00:04:19;;;;;;;4.53;3.10;;;;;;;26.51;47.88;94676.47;5092488;28;20186;-82
2022/07/30 00:06:46;;;;;;;3.78;3.45;;;;;;;25.64;47.16;94533.38;5092371;28;20277;-82
2022/07/30 00:09:13;;;;;;;3.17;2.92;;;;;;;26.61;47.09;94676.66;5092536;28;20186;-82
2022/07/30 00:11:39;;;;;;;6.13;3.20;;;;;;;25.49;47.11;94501.72;5092171;28;20221;-82
2022/07/30 00:14:06;;;;;;;5.13;3.20;;;;;;;26.58;47.04;94671.09;5092232;28;20200;-82
2022/07/30 00:16:33;;;;;;;4.25;3.75;;;;;;;26.40;46.76;94640.59;5092041;28;20201;-81
2022/07/30 00:19:00;;;;;;;4.55;3.72;;;;;;;26.23;47.06;94624.84;5092578;28;20200;-81
2022/07/30 00:24:45;;;;;;;4.68;3.92;;;;;;;26.14;47.36;94621.81;5044816;28;20293;-82
2022/07/30 00:27:13;;;;;;;3.75;3.45;;;;;;;26.41;47.54;94661.34;5092588;28;20656;-83
2022/07/30 00:29:40;;;;;;;4.30;3.35;;;;;;;26.10;47.46;94618.06;5092089;28;20273;-84
2022/07/30 00:32:07;;;;;;;4.20;3.42;;;;;;;26.35;47.66;94659.66;5091968;28;20213;-82
2022/07/30 00:34:33;;;;;;;3.30;3.10;;;;;;;26.32;48.09;94670.63;5092228;28;20190;-83
2022/07/30 00:37:00;;;;;;;6.43;4.07;;;;;;;26.26;48.12;94659.25;5092085;28;20189;-81
2022/07/30 00:39:29;;;;;;;3.42;3.13;;;;;;;26.24;48.14;94657.91;5092028;28;20185;-82
2022/07/30 00:41:59;;;;;;;3.95;3.65;;;;;;;25.85;48.18;94609.75;5091852;28;20212;-83
2022/07/30 00:44:26;;;;;;;3.13;2.92;;;;;;;25.83;47.99;94606.59;5091532;28;20284;-81
2022/07/30 00:46:54;;;;;;;3.38;3.17;;;;;;;26.14;48.36;94663.75;5091619;28;20201;-83
2022/07/30 00:49:21;;;;;;;4.63;3.45;;;;;;;26.14;48.21;94665.59;5091401;28;20190;-82
2022/07/30 00:51:48;;;;;;;3.88;3.42;;;;;;;25.81;48.38;94621.75;5092030;28;20225;-83
2022/07/30 00:54:15;;;;;;;4.05;3.75;;;;;;;26.08;48.76;94659.47;5092401;28;20184;-83
2022/07/30 00:56:42;;;;;;;3.30;3.08;;;;;;;25.88;48.73;94638.91;5091882;28;20267;-82
2022/07/30 00:59:10;;;;;;;4.65;3.80;;;;;;;25.82;49.22;94629.38;5091605;28;20190;-82
2022/07/30 01:01:37;;;;;;;7.50;4.20;;;;;;;25.17;49.43;94532.78;5091247;28;20193;-82
2022/07/30 01:04:06;;;;;;;5.43;4.88;;;;;;;25.05;50.02;94517.09;5090960;28;20640;-82
2022/07/30 01:06:33;;;;;;;5.57;4.43;;;;;;;25.95;50.52;94663.16;5090741;28;20415;-83
2022/07/30 01:09:00;;;;;;;5.68;5.15;;;;;;;25.93;50.98;94659.19;5093585;28;20687;-82
2022/07/30 01:11:34;;;;;;;5.53;5.03;;;;;;;25.40;51.33;94587.69;5098167;28;20711;-84
2022/07/30 01:14:01;;;;;;;5.47;4.97;;;;;;;25.80;51.87;94648.97;5093657;28;20190;-82
2022/07/30 01:16:29;;;;;;;5.80;5.30;;;;;;;25.83;51.72;94656.38;5090854;28;20201;-82
2022/07/30 01:21:51;;;;;;;4.20;3.80;;;;;;;25.87;50.64;94653.06;5090549;28;20243;-81
2022/07/30 01:24:29;;;;;;;3.72;3.42;;;;;;;25.90;50.08;94657.03;5090365;28;20193;-81
2022/07/30 01:26:58;;;;;;;3.95;3.60;;;;;;;25.88;49.19;94659.88;5090073;28;20200;-83
2022/07/30 01:29:29;;;;;;;7.97;5.15;;;;;;;25.84;50.55;94650.91;5090191;28;20185;-83
2022/07/30 01:31:59;;;;;;;5.20;4.78;;;;;;;25.36;51.02;94591.81;5089935;28;20213;-84
2022/07/30 01:34:28;;;;;;;5.13;4.65;;;;;;;25.74;51.49;94654.09;5090310;28;20181;-84
2022/07/30 01:36:56;;;;;;;4.60;4.20;;;;;;;25.72;51.85;94657.97;5090334;28;20186;-83
2022/07/30 01:39:25;;;;;;;7.45;5.03;;;;;;;25.47;51.76;94627.63;5090134;28;20657;-82
2022/07/30 01:41:53;;;;;;;5.85;5.30;;;;;;;25.56;52.32;94648.22;5089808;28;20200;-82
2022/07/30 01:44:24;;;;;;;5.05;4.65;;;;;;;25.57;52.44;94653.22;5090449;28;20193;-82
2022/07/30 01:46:52;;;;;;;5.20;4.72;;;;;;;25.02;52.61;94585.56;5090110;28;20406;-83
2022/07/30 01:49:19;;;;;;;7.15;5.13;;;;;;;24.06;52.53;94441.25;5089805;28;21816;-82
2022/07/30 01:51:48;;;;;;;5.80;5.05;;;;;;;25.47;53.01;94660.88;5089982;28;20707;-82
2022/07/30 01:54:18;;;;;;;5.80;5.18;;;;;;;24.51;53.24;94519.88;5089895;28;20613;-82
2022/07/30 01:56:47;;;;;;;5.03;4.53;;;;;;;25.38;53.26;94660.44;5090097;28;20198;-83
2022/07/30 01:59:18;;;;;;;5.32;4.82;;;;;;;25.14;53.60;94632.72;5089603;28;20194;-82
2022/07/30 02:01:47;;;;;;;5.60;5.10;;;;;;;25.29;53.96;94661.81;5089708;28;20205;-81
2022/07/30 02:04:14;;;;;;;5.25;4.80;;;;;;;25.26;54.39;94664.91;5089843;28;20208;-82
2022/07/30 02:06:44;;;;;;;6.25;5.72;;;;;;;25.23;53.80;94658.28;5090172;28;20177;-83
2022/07/30 02:09:15;;;;;;;6.85;5.35;;;;;;;24.87;54.47;94611.41;5089958;28;20188;-83
2022/07/30 02:14:34;;;;;;;5.60;5.07;;;;;;;25.11;54.77;94654.88;5090011;28;20234;-83
2022/07/30 02:17:04;;;;;;;6.82;5.57;;;;;;;24.67;54.82;94590.84;5089747;28;20185;-83
2022/07/30 02:19:36;;;;;;;7.25;5.68;;;;;;;24.75;55.26;94603.56;5090109;28;20576;-84
2022/07/30 02:22:06;;;;;;;8.80;5.57;;;;;;;25.01;55.64;94650.19;5089481;28;20186;-84
2022/07/30 02:24:36;;;;;;;6.05;5.45;;;;;;;24.98;55.27;94640.19;5089283;28;20198;-81
2022/07/30 02:27:14;;;;;;;6.18;5.57;;;;;;;24.95;55.86;94645.88;5090077;28;20573;-83
2022/07/30 02:29:42;;;;;;;7.45;5.50;;;;;;;24.91;56.28;94641.31;5089830;28;20681;-83
2022/07/30 02:32:14;;;;;;;5.82;5.30;;;;;;;24.70;55.73;94619.97;5089740;28;20221;-82
2022/07/30 02:34:43;;;;;;;6.68;5.25;;;;;;;24.88;54.79;94641.78;5069639;28;20198;-81
2022/07/30 02:37:13;;;;;;;6.38;5.20;;;;;;;24.71;55.79;94618.94;5084400;28;20205;-82
2022/07/30 02:39:43;;;;;;;6.15;5.55;;;;;;;24.81;55.97;94638.47;5090054;28;20190;-82
2022/07/30 02:42:10;;;;;;;6.28;4.70;;;;;;;24.65;55.88;94621.63;5089536;28;20322;-82
2022/07/30 02:44:38;;;;;;;5.15;4.75;;;;;;;24.75;55.86;94640.19;5089569;28;20220;-82
2022/07/30 02:47:06;;;;;;;5.55;5.10;;;;;;;24.71;56.13;94639.84;5089610;28;20194;-82
2022/07/30 02:49:36;;;;;;;6.47;5.30;;;;;;;24.48;56.52;94611.03;5090598;28;20744;-82
2022/07/30 02:52:07;;;;;;;4.10;3.70;;;;;;;24.66;55.63;94641.56;5093638;28;20715;-82
2022/07/30 02:54:39;;;;;;;4.90;4.40;;;;;;;24.65;54.51;94637.31;5093520;28;20179;-82
2022/07/30 02:57:07;;;;;;;5.70;4.55;;;;;;;24.67;54.49;94630.06;5093281;28;20200;-82
2022/07/30 02:59:36;;;;;;;5.82;4.53;;;;;;;24.63;54.95;94629.72;5093321;28;20189;-82
2022/07/30 03:02:04;;;;;;;5.70;5.20;;;;;;;24.40;56.42;94599.13;5093124;28;20537;-82
2022/07/30 03:04:32;;;;;;;8.95;5.40;;;;;;;24.58;56.85;94629.59;5093295;28;20189;-82
2022/07/30 03:07:01;;;;;;;6.65;6.05;;;;;;;24.53;57.52;94632.09;5092586;28;20731;-82
2022/07/30 03:09:29;;;;;;;6.25;5.53;;;;;;;24.53;57.52;94626.88;5093220;28;20189;-82
2022/07/30 03:11:58;;;;;;;7.43;5.97;;;;;;;24.09;57.83;94555.72;5092844;28;20688;-84
2022/07/30 03:14:25;;;;;;;6.53;5.93;;;;;;;24.20;57.51;94582.91;5093713;28;20215;-82
2022/07/30 03:16:57;;;;;;;7.10;5.72;;;;;;;24.27;58.06;94596.69;5100848;28;20194;-82
2022/07/30 03:19:30;;;;;;;6.07;5.25;;;;;;;24.41;57.83;94621.63;5094969;28;20197;-81
2022/07/30 03:21:58;;;;;;;9.95;5.85;;;;;;;24.40;57.43;94627.09;5093377;28;20213;-82
2022/07/30 03:24:27;;;;;;;5.82;5.32;;;;;;;24.25;57.76;94612.56;5093162;28;20186;-83
2022/07/30 03:26:56;;;;;;;6.50;5.50;;;;;;;23.88;57.71;94554.47;5092725;28;20190;-82
2022/07/30 03:29:26;;;;;;;6.15;5.50;;;;;;;24.31;57.77;94625.75;5093258;28;20190;-82
2022/07/30 03:31:53;;;;;;;6.50;5.30;;;;;;;24.27;57.86;94628.84;5092675;28;20197;-82
2022/07/30 03:34:21;;;;;;;5.85;5.28;;;;;;;24.25;58.13;94630.88;5093053;28;20619;-82
2022/07/30 03:36:49;;;;;;;6.07;5.57;;;;;;;24.23;58.32;94632.13;5092853;28;20186;-82
2022/07/30 03:39:17;;;;;;;9.35;6.05;;;;;;;24.20;58.43;94635.19;5093434;28;20206;-83
2022/07/30 03:41:47;;;;;;;7.18;5.43;;;;;;;23.52;58.46;94537.84;5092980;28;20190;-82
2022/07/30 03:44:15;;;;;;;5.75;5.18;;;;;;;24.07;58.68;94630.94;5095260;28;20190;-82
2022/07/30 03:46:43;;;;;;;6.15;5.22;;;;;;;23.59;59.00;94558.66;5093516;28;20193;-82
2022/07/30 03:49:10;;;;;;;6.07;5.43;;;;;;;23.33;59.05;94527.69;5093056;28;20182;-83
2022/07/30 03:51:37;;;;;;;7.85;6.45;;;;;;;23.04;59.00;94490.91;5095246;28;20273;-83
2022/07/30 03:54:08;;;;;;;8.88;5.43;;;;;;;23.53;59.18;94572.56;5093666;28;20248;-82
2022/07/30 03:56:35;;;;;;;7.40;6.57;;;;;;;24.00;59.39;94640.69;5092863;28;20255;-82
2022/07/30 03:59:05;;;;;;;6.47;5.20;;;;;;;24.01;59.46;94650.94;5095203;28;20733;-82
2022/07/30 04:01:32;;;;;;;8.00;5.90;;;;;;;24.04;59.27;94654.91;5094465;28;20652;-82
2022/07/30 04:04:05;;;;;;;7.20;6.15;;;;;;;23.90;59.53;94628.16;5093827;28;20186;-84
2022/07/30 04:06:35;;;;;;;6.18;5.57;;;;;;;23.98;59.20;94646.13;5093895;28;20232;-83
2022/07/30 04:09:02;;;;;;;7.28;6.20;;;;;;;24.00;59.47;94656.34;5103255;28;20186;-84
2022/07/30 04:11:29;;;;;;;6.80;5.50;;;;;;;23.98;59.34;94659.19;5111661;28;20194;-83
2022/07/30 04:13:55;;;;;;;6.93;5.95;;;;;;;23.84;59.42;94634.28;5110673;28;20229;-84
2022/07/30 04:16:34;;;;;;;9.85;5.28;;;;;;;24.00;59.20;94656.34;5102672;28;20190;-80
2022/07/30 04:19:03;;;;;;;6.05;5.35;;;;;;;23.61;59.01;94590.53;5099289;28;20211;-85
2022/07/30 04:21:32;;;;;;;5.95;5.43;;;;;;;23.88;59.19;94637.25;5092674;28;20182;-82
2022/07/30 04:24:00;;;;;;;7.45;5.53;;;;;;;24.06;58.72;94665.94;5092899;28;20194;-83
2022/07/30 04:26:28;;;;;;;6.10;5.55;;;;;;;24.02;59.23;94673.41;5092389;28;20663;-81
2022/07/30 04:28:55;;;;;;;7.65;5.85;;;;;;;24.02;59.72;94662.97;5093520;28;20196;-83
2022/07/30 04:31:25;;;;;;;10.23;5.90;;;;;;;24.00;59.65;94654.53;5095554;28;20630;-82
2022/07/30 04:33:52;;;;;;;6.43;5.35;;;;;;;24.02;59.78;94659.56;5094014;28;20229;-84
2022/07/30 04:36:18;;;;;;;7.05;5.47;;;;;;;23.70;59.64;94611.94;5093021;28;20197;-83
2022/07/30 04:38:45;;;;;;;9.25;5.47;;;;;;;24.08;59.53;94671.72;5092248;28;20196;-85
2022/07/30 04:41:12;;;;;;;7.22;5.53;;;;;;;24.08;59.31;94663.09;5092553;28;20295;-84
2022/07/30 04:43:39;;;;;;;8.35;5.55;;;;;;;24.12;58.75;94670.25;5091647;28;20267;-83
2022/07/30 04:46:06;;;;;;;10.75;5.80;;;;;;;24.14;58.59;94677.91;5091198;28;20665;-83
2022/07/30 04:48:34;;;;;;;12.60;5.20;;;;;;;23.45;58.44;94570.28;5091805;28;20188;-83
2022/07/30 04:51:05;;;;;;;6.28;5.68;;;;;;;23.32;58.01;94539.94;5092785;28;20186;-83
2022/07/30 04:53:33;;;;;;;6.78;5.25;;;;;;;24.15;58.19;94682.91;5091739;28;20229;-83
2022/07/30 04:56:02;;;;;;;7.25;6.03;;;;;;;24.19;57.88;94670.97;5091938;28;20192;-83
2022/07/30 04:58:30;;;;;;;7.82;5.45;;;;;;;24.04;58.20;94645.25;5092044;28;20774;-83
2022/07/30 05:00:59;;;;;;;6.70;5.20;;;;;;;23.74;58.46;94589.59;5092181;28;20192;-82
2022/07/30 05:03:27;;;;;;;8.43;5.53;;;;;;;24.15;58.72;94643.69;5092147;28;20192;-83
2022/07/30 05:05:55;;;;;;;8.98;5.30;;;;;;;24.09;58.85;94628.09;5091187;28;20205;-84
2022/07/30 05:08:23;;;;;;;7.95;5.07;;;;;;;23.12;58.61;94467.13;5091475;28;20213;-85
2022/07/30 05:10:51;;;;;;;9.27;5.53;;;;;;;23.63;58.59;94543.34;5091686;28;20186;-82
2022/07/30 05:13:17;;;;;;;8.73;5.68;;;;;;;23.63;58.86;94525.84;5090943;28;20730;-82
2022/07/30 05:15:44;;;;;;;8.00;5.53;;;;;;;24.44;57.84;94657.00;5090802;28;20585;-83
2022/07/30 05:18:11;;;;;;;8.40;4.95;;;;;;;24.44;57.73;94662.22;5091426;28;20545;-83
2022/07/30 05:20:39;;;;;;;8.30;5.78;;;;;;;24.30;57.86;94653.72;5090349;28;20198;-83
2022/07/30 05:23:07;;;;;;;13.23;5.28;;;;;;;24.37;58.12;94653.63;5090988;28;20213;-83
2022/07/30 05:25:34;;;;;;;6.03;4.90;;;;;;;23.46;57.75;94511.84;5090482;28;20177;-84
2022/07/30 05:28:01;;;;;;;5.65;5.10;;;;;;;24.39;57.93;94623.66;5090694;28;20208;-84
2022/07/30 05:30:28;;;;;;;5.60;5.00;;;;;;;24.11;56.92;94595.50;5090892;28;20661;-83
2022/07/30 05:32:55;;;;;;;6.38;4.75;;;;;;;24.60;57.45;94664.16;5090448;28;20202;-84
2022/07/30 05:35:22;;;;;;;7.65;5.03;;;;;;;24.57;57.75;94628.03;5089939;28;20670;-83
2022/07/30 05:37:48;;;;;;;5.60;5.05;;;;;;;24.93;57.67;94658.41;5091099;28;20637;-86
2022/07/30 05:40:17;;;;;;;7.55;5.15;;;;;;;25.08;56.97;94665.81;5090510;28;20184;-85
2022/07/30 05:42:44;;;;;;;7.32;5.03;;;;;;;24.77;56.06;94609.38;5079154;28;20657;-83
2022/07/30 05:45:11;;;;;;;6.57;5.22;;;;;;;25.12;55.82;94659.09;5089751;28;20211;-82
2022/07/30 05:47:38;;;;;;;8.05;6.05;;;;;;;25.34;56.59;94664.53;5090565;28;20273;-82
2022/07/30 05:50:06;;;;;;;10.35;5.45;;;;;;;25.28;56.17;94634.84;5090521;28;20641;-82
2022/07/30 05:52:33;;;;;;;6.43;5.22;;;;;;;25.14;56.17;94593.44;5072031;28;20197;-84
2022/07/30 05:55:01;;;;;;;8.63;5.50;;;;;;;25.12;56.15;94564.09;5072044;28;20189;-85
2022/07/30 05:57:30;;;;;;;9.52;6.03;;;;;;;25.87;55.47;94665.38;5070027;28;20198;-84
2022/07/30 05:59:56;;;;;;;6.28;4.90;;;;;;;25.83;54.42;94667.66;5071085;28;20677;-85
2022/07/30 06:02:25;;;;;;;8.75;5.97;;;;;;;25.98;55.16;94660.06;5074331;28;20744;-85
2022/07/30 06:04:53;;;;;;;9.77;5.57;;;;;;;24.72;54.44;94442.66;5090640;28;20284;-86
2022/07/30 06:07:20;;;;;;;6.00;5.50;;;;;;;25.63;54.60;94573.72;5090599;28;20229;-87
2022/07/30 06:09:47;;;;;;;8.73;4.55;;;;;;;26.02;54.42;94619.25;5090434;28;20858;-86
2022/07/30 06:12:14;;;;;;;10.60;5.28;;;;;;;26.12;54.27;94618.66;5090770;28;20227;-88
2022/07/30 06:14:43;;;;;;;6.53;4.93;;;;;;;25.80;53.84;94554.66;5091302;28;20225;-88
2022/07/30 06:17:10;;;;;;;6.03;5.43;;;;;;;26.63;53.39;94679.81;5095786;28;20208;-88
2022/07/30 06:19:37;;;;;;;12.25;5.10;;;;;;;26.44;53.92;94618.16;5091763;28;20200;-83
2022/07/30 06:22:06;;;;;;;5.28;4.75;;;;;;;26.98;53.84;94671.69;5091828;28;20615;-84
2022/07/30 06:24:32;;;;;;;7.28;5.00;;;;;;;26.82;53.10;94635.00;5084173;28;20317;-85
2022/07/30 06:27:00;;;;;;;7.97;5.70;;;;;;;26.81;52.41;94607.16;5081768;28;20205;-87
2022/07/30 06:29:27;;;;;;;8.75;5.35;;;;;;;27.23;51.88;94673.13;5095932;28;20213;-88
2022/07/30 06:31:55;;;;;;;9.85;5.13;;;;;;;27.13;51.53;94629.16;5093635;28;20200;-90
2022/07/30 06:34:22;;;;;;;6.50;4.80;;;;;;;27.47;51.22;94661.38;5093437;28;20214;-89
2022/07/30 06:36:49;;;;;;;8.25;5.10;;;;;;;27.64;50.89;94661.34;5093094;28;20202;-83
2022/07/30 06:39:17;;;;;;;5.13;4.72;;;;;;;27.85;50.52;94665.03;5092748;28;20225;-86
2022/07/30 06:41:45;;;;;;;5.63;4.80;;;;;;;27.92;51.13;94638.53;5094003;28;20208;-86
2022/07/30 06:44:12;;;;;;;6.75;4.50;;;;;;;28.30;49.98;94653.38;5094285;28;20194;-86
2022/07/30 06:46:39;;;;;;;6.25;4.55;;;;;;;28.46;48.90;94647.25;5093545;28;20224;-91
2022/07/30 06:49:07;;;;;;;5.47;4.43;;;;;;;28.01;48.65;94545.03;5092950;28;20185;-85
2022/07/30 06:51:34;;;;;;;4.72;4.38;;;;;;;28.69;48.19;94614.50;5093796;28;20205;-84
2022/07/30 06:54:01;;;;;;;6.63;3.97;;;;;;;29.11;46.44;94636.66;5097120;28;20771;-82
2022/07/30 06:56:27;;;;;;;5.95;4.07;;;;;;;28.46;46.63;94507.78;5097670;28;20580;-84
2022/07/30 06:58:55;;;;;;;4.68;4.10;;;;;;;29.56;46.21;94632.69;5093048;28;20258;-84
2022/07/30 07:01:23;;;;;;;4.70;4.18;;;;;;;29.47;45.81;94577.81;5095202;28;20210;-93
2022/07/30 07:03:50;;;;;;;5.30;4.45;;;;;;;29.59;45.12;94576.84;5096261;28;20185;-84
2022/07/30 07:06:19;;;;;;;3.83;3.53;;;;;;;29.99;44.65;94598.00;5095184;28;20185;-86
2022/07/30 07:08:48;;;;;;;4.55;4.15;;;;;;;30.38;44.75;94629.22;5093587;28;20281;-91
2022/07/30 07:11:15;;;;;;;4.28;3.88;;;;;;;29.85;44.55;94527.59;5075853;28;20254;-85
2022/07/30 07:13:43;;;;;;;5.75;4.00;;;;;;;30.06;44.38;94538.94;5092111;28;20217;-92
2022/07/30 07:16:10;;;;;;;5.03;4.13;;;;;;;30.71;43.41;94622.63;5093507;28;20193;-93
2022/07/30 07:18:37;;;;;;;4.60;4.20;;;;;;;30.27;43.75;94529.19;5092250;28;20289;-85
2022/07/30 07:21:05;;;;;;;7.85;4.20;;;;;;;30.75;43.08;94580.66;5091366;28;20197;-89
2022/07/30 07:23:33;;;;;;;4.88;4.38;;;;;;;30.70;42.82;94573.53;5093126;28;20750;-85
2022/07/30 07:26:00;;;;;;;7.80;4.47;;;;;;;31.05;42.84;94621.28;5091556;28;20193;-86
2022/07/30 07:28:29;;;;;;;4.68;3.95;;;;;;;31.16;42.73;94625.47;5097006;28;20200;-92
2022/07/30 07:30:56;;;;;;;5.28;4.53;;;;;;;30.41;42.68;94499.38;5092997;28;20204;-84
2022/07/30 07:33:24;;;;;;;10.32;5.20;;;;;;;31.27;42.65;94607.75;5091471;28;20212;-85
2022/07/30 07:35:53;;;;;;;5.47;4.15;;;;;;;30.12;42.04;94419.97;5090374;28;20193;-86
2022/07/30 07:38:20;;;;;;;4.05;3.75;;;;;;;31.57;42.51;94630.69;5096725;28;20200;-86
2022/07/30 07:40:48;;;;;;;9.65;4.93;;;;;;;31.10;42.93;94539.38;5092613;28;20193;-85
2022/07/30 07:43:15;;;;;;;5.25;4.50;;;;;;;30.94;42.51;94499.00;5092747;28;20197;-92
2022/07/30 07:45:46;;;;;;;8.55;4.22;;;;;;;31.91;41.66;94626.31;5095934;28;20186;-88
2022/07/30 07:48:13;;;;;;;7.40;4.45;;;;;;;32.00;41.86;94626.53;5093668;28;20202;-89
2022/07/30 07:50:40;;;;;;;4.78;4.05;;;;;;;32.12;41.08;94634.09;5098354;28;20197;-88
2022/07/30 07:53:07;;;;;;;7.75;4.35;;;;;;;32.12;40.90;94602.34;5099819;28;20205;-92
2022/07/30 07:55:34;;;;;;;4.47;4.07;;;;;;;32.33;41.21;94632.13;5103847;28;20699;-91
2022/07/30 07:58:03;;;;;;;5.00;4.50;;;;;;;32.27;40.70;94596.97;5097810;28;20193;-85
2022/07/30 08:00:29;;;;;;;6.20;3.80;;;;;;;30.98;40.27;94389.91;5092924;28;20221;-90
2022/07/30 08:02:56;;;;;;;4.32;3.90;;;;;;;31.34;40.41;94439.13;5089522;28;20569;-86
2022/07/30 08:05:23;;;;;;;4.60;4.20;;;;;;;32.44;39.83;94604.53;5093360;28;20190;-84
2022/07/30 08:07:50;;;;;;;4.43;4.03;;;;;;;32.50;39.70;94627.25;5092031;28;20759;-84
2022/07/30 08:10:18;;;;;;;4.70;3.47;;;;;;;32.55;39.67;94621.91;5093389;28;20194;-90
2022/07/30 08:12:45;;;;;;;5.00;4.50;;;;;;;31.98;40.13;94520.16;5091866;28;20190;-91
2022/07/30 08:15:15;;;;;;;4.22;3.83;;;;;;;32.65;40.41;94615.75;5091650;28;20604;-89
2022/07/30 08:17:44;;;;;;;4.78;4.38;;;;;;;32.76;39.88;94609.28;5091483;28;20186;-88
2022/07/30 08:20:13;;;;;;;5.55;4.60;;;;;;;31.93;39.88;94481.31;5091565;28;20232;-86
2022/07/30 08:22:41;;;;;;;4.63;4.28;;;;;;;32.90;39.21;94612.06;5090759;28;20193;-87
2022/07/30 08:25:09;;;;;;;4.40;4.10;;;;;;;32.79;39.33;94578.81;5092883;28;20193;-91
2022/07/30 08:27:37;;;;;;;5.00;4.15;;;;;;;32.90;39.09;94578.44;5093013;28;20194;-85
2022/07/30 08:30:05;;;;;;;6.18;4.35;;;;;;;32.79;38.15;94550.47;5091155;28;20193;-87
2022/07/30 08:32:33;;;;;;;4.63;4.22;;;;;;;32.93;37.96;94556.69;5091124;28;20209;-86
2022/07/30 08:35:01;;;;;;;5.63;4.50;;;;;;;33.03;37.74;94560.31;5090994;28;20264;-84
2022/07/30 08:37:28;;;;;;;4.93;4.43;;;;;;;32.50;37.99;94478.19;5090443;28;20845;-85
2022/07/30 08:39:56;;;;;;;5.05;4.55;;;;;;;32.18;38.20;94437.97;5091238;28;20634;-92
2022/07/30 08:42:23;;;;;;;5.85;4.35;;;;;;;32.99;37.80;94546.84;5090614;28;20193;-86
2022/07/30 08:44:53;;;;;;;5.75;4.10;;;;;;;32.65;38.21;94494.72;5090368;28;20186;-85
2022/07/30 08:47:25;;;;;;;4.60;3.95;;;;;;;33.24;37.63;94566.16;5089351;28;20190;-87
2022/07/30 08:49:54;;;;;;;4.72;4.32;;;;;;;33.16;37.52;94551.66;5089279;28;20189;-85
2022/07/30 08:52:22;;;;;;;6.80;3.85;;;;;;;33.22;37.33;94556.63;5089901;28;20232;-88
2022/07/30 08:54:58;;;;;;;5.20;4.70;;;;;;;33.56;37.28;94592.84;5090674;28;20237;-93
2022/07/30 08:57:26;;;;;;;4.65;4.25;;;;;;;33.62;36.90;94589.06;5089180;28;20199;-86
2022/07/30 08:59:53;;;;;;;4.88;3.92;;;;;;;33.70;37.25;94582.31;5090458;28;20202;-88
2022/07/30 09:02:20;;;;;;;5.25;4.35;;;;;;;33.76;36.86;94583.03;5090589;28;20637;-86
2022/07/30 09:04:48;;;;;;;5.18;4.75;;;;;;;33.25;36.12;94494.31;5100960;28;20185;-90
2022/07/30 09:07:16;;;;;;;4.78;4.07;;;;;;;33.77;36.00;94577.47;5098974;28;20244;-86
2022/07/30 09:09:43;;;;;;;4.65;4.25;;;;;;;33.83;35.57;94576.31;5069909;28;20665;-83
2022/07/30 09:12:35;;;;;;;5.15;4.05;;;;;;;33.78;35.72;94567.63;5073003;28;20632;-81
2022/07/30 09:15:05;;;;;;;5.15;4.18;;;;;;;33.44;36.34;94518.22;5078227;28;20305;-83
2022/07/30 09:17:46;;;;;;;5.57;4.50;;;;;;;33.80;36.38;94560.97;5089622;28;20185;-83
2022/07/30 09:20:13;;;;;;;5.15;4.25;;;;;;;33.58;36.51;94542.94;5089083;28;20197;-83
2022/07/30 09:22:44;;;;;;;4.15;3.85;;;;;;;33.74;35.92;94551.50;5089288;28;20208;-84
2022/07/30 09:25:11;;;;;;;4.85;4.43;;;;;;;33.61;35.52;94529.13;5089967;28;20185;-87
2022/07/30 09:27:46;;;;;;;9.02;4.55;;;;;;;33.69;35.21;94525.84;5091836;28;20197;-86
2022/07/30 09:30:13;;;;;;;5.13;3.90;;;;;;;32.69;35.28;94359.88;5075874;28;20591;-85
2022/07/30 09:32:51;;;;;;;4.75;4.35;;;;;;;33.93;35.48;94548.84;5092700;28;20196;-84
2022/07/30 09:35:18;;;;;;;4.22;3.90;;;;;;;33.86;35.67;94543.13;5090310;28;20270;-87
2022/07/30 09:37:47;;;;;;;5.25;4.07;;;;;;;33.64;35.92;94514.50;5089589;28;20186;-91
2022/07/30 09:40:17;;;;;;;6.00;4.50;;;;;;;32.92;35.21;94398.00;5090853;28;20201;-89
2022/07/30 09:42:45;;;;;;;4.63;4.20;;;;;;;33.88;36.07;94540.94;5096027;28;20371;-84
2022/07/30 09:45:13;;;;;;;7.78;4.40;;;;;;;33.79;35.33;94522.25;5090402;28;20201;-85
2022/07/30 09:47:43;;;;;;;4.50;4.05;;;;;;;32.53;36.04;94332.78;5092148;28;20193;-87
2022/07/30 09:50:12;;;;;;;5.13;3.85;;;;;;;33.93;35.81;94541.66;5091505;28;20219;-88
2022/07/30 09:52:41;;;;;;;4.82;4.40;;;;;;;33.54;35.55;94474.84;5091868;28;20407;-87
2022/07/30 09:55:10;;;;;;;5.50;4.35;;;;;;;33.57;35.17;94495.50;5090993;28;20228;-86
2022/07/30 09:57:55;;;;;;;4.85;4.30;;;;;;;33.90;35.34;94533.50;5092342;28;20196;-88
2022/07/30 10:00:24;;;;;;;5.50;4.10;;;;;;;33.62;35.01;94498.09;5092715;28;20212;-86
2022/07/30 10:02:52;;;;;;;4.72;4.32;;;;;;;33.51;35.75;94523.97;5092674;28;20194;-83
2022/07/30 10:05:21;;;;;;;4.80;4.38;;;;;;;33.15;35.84;94460.75;5091796;28;20197;-85
2022/07/30 10:07:50;;;;;;;4.90;4.50;;;;;;;33.64;35.54;94525.13;5091945;28;20649;-85
2022/07/30 10:10:22;;;;;;;4.60;4.20;;;;;;;33.56;35.58;94497.38;5091668;28;20211;-86
2022/07/30 10:12:52;;;;;;;4.65;4.25;;;;;;;33.69;35.87;94506.47;5092692;28;20186;-85
2022/07/30 10:15:21;;;;;;;5.35;4.68;;;;;;;32.71;35.91;94374.41;5091537;28;20228;-83
2022/07/30 10:17:49;;;;;;;5.47;4.97;;;;;;;33.48;36.18;94484.75;5092134;28;20576;-85
2022/07/30 10:20:17;;;;;;;8.45;4.85;;;;;;;33.64;36.08;94514.50;5102841;28;20227;-89
2022/07/30 10:22:44;;;;;;;4.80;4.25;;;;;;;32.83;36.20;94386.44;5109445;28;20200;-88
2022/07/30 10:25:11;;;;;;;5.40;4.90;;;;;;;33.42;35.87;94470.75;5110542;28;20198;-89
2022/07/30 10:27:41;;;;;;;5.20;4.28;;;;;;;32.47;36.01;94329.44;5114829;28;20186;-87
2022/07/30 10:30:11;;;;;;;4.70;4.22;;;;;;;33.63;35.94;94486.38;5116169;28;20177;-87
2022/07/30 10:32:38;;;;;;;5.95;5.45;;;;;;;33.62;36.03;94476.88;5114414;28;20252;-87
2022/07/30 10:35:06;;;;;;;6.80;5.25;;;;;;;33.66;35.27;94488.47;5112160;28;20215;-85
2022/07/30 10:37:35;;;;;;;5.97;5.32;;;;;;;33.43;35.54;94453.78;5113505;28;20174;-84
2022/07/30 10:40:10;;;;;;;6.13;5.53;;;;;;;32.82;35.58;94356.53;5113968;28;20212;-86
2022/07/30 10:43:02;;;;;;;5.10;4.70;;;;;;;33.60;35.46;94487.78;5097269;28;20557;-86
2022/07/30 10:45:42;;;;;;;5.05;4.55;;;;;;;33.24;36.27;94431.75;5094495;28;20188;-86
2022/07/30 10:48:09;;;;;;;5.38;4.72;;;;;;;33.57;35.90;94475.06;5091330;28;20649;-89
2022/07/30 10:50:51;;;;;;;5.55;4.75;;;;;;;33.44;36.42;94439.47;5072187;28;20198;-89
2022/07/30 10:53:39;;;;;;;5.28;4.30;;;;;;;33.34;36.06;94425.53;5073011;28;20202;-90
2022/07/30 10:56:15;;;;;;;5.32;4.63;;;;;;;33.61;36.20;94470.78;5076057;28;20210;-89
2022/07/30 10:59:04;;;;;;;8.45;5.00;;;;;;;33.30;36.55;94421.88;5075028;28;20206;-87
2022/07/30 11:02:09;;;;;;;7.72;5.15;;;;;;;33.63;36.53;94462.53;5080803;28;20182;-89
2022/07/30 11:04:36;;;;;;;5.90;4.60;;;;;;;33.55;35.98;94440.13;5092667;28;20222;-88
2022/07/30 11:07:33;;;;;;;7.47;5.30;;;;;;;33.04;35.81;94357.84;5090625;28;20265;-88
2022/07/30 11:10:03;;;;;;;9.52;6.32;;;;;;;32.78;35.46;94312.34;5008754;28;20193;-87
2022/07/30 11:12:53;;;;;;;5.95;5.45;;;;;;;33.65;35.78;94441.81;5014328;28;20229;-87
2022/07/30 11:15:22;;;;;;;6.68;6.05;;;;;;;33.66;35.65;94433.56;5012278;28;20276;-87
2022/07/30 11:18:05;;;;;;;6.70;6.10;;;;;;;33.51;35.74;94415.25;5007825;28;20204;-91
2022/07/30 11:20:36;;;;;;;6.05;5.47;;;;;;;33.75;35.54;94432.91;5007691;28;20196;-91
2022/07/30 11:23:11;;;;;;;6.03;5.25;;;;;;;33.79;35.36;94436.56;4998444;28;20205;-85
2022/07/30 11:25:46;;;;;;;5.65;5.25;;;;;;;33.24;35.48;94351.44;4996260;28;20734;-88
2022/07/30 11:28:34;;;;;;;5.50;5.00;;;;;;;33.69;35.91;94429.56;4993796;28;20196;-87
2022/07/30 11:31:28;;;;;;;5.65;5.13;;;;;;;33.66;35.68;94411.56;4993410;28;20197;-89
2022/07/30 11:34:27;;;;;;;6.22;5.68;;;;;;;33.74;35.31;94420.72;4993805;28;20269;-89
2022/07/30 11:37:06;;;;;;;6.05;5.45;;;;;;;32.90;35.38;94281.72;4994560;28;20207;-93
2022/07/30 11:40:09;;;;;;;8.48;5.22;;;;;;;33.70;35.88;94408.03;4993999;28;20203;-84
2022/07/30 11:42:45;;;;;;;6.95;5.38;;;;;;;33.68;35.86;94398.81;4971946;28;20197;-85
2022/07/30 11:45:31;;;;;;;6.47;5.97;;;;;;;33.38;35.62;94357.63;5083755;28;20197;-89
2022/07/30 11:48:00;;;;;;;6.63;5.43;;;;;;;33.76;35.44;94402.63;5095193;28;20250;-90
2022/07/30 11:50:34;;;;;;;6.13;5.50;;;;;;;32.66;35.67;94236.75;5093697;28;20290;-88
2022/07/30 11:55:56;;;;;;;6.13;5.53;;;;;;;33.63;35.63;94369.69;5035703;28;20234;-91
2022/07/30 11:58:25;;;;;;;5.97;5.38;;;;;;;32.69;35.95;94240.69;5024609;28;20202;-91